createdAt,value
2024-04-06T00:00:03.931Z,68.17
2024-04-06T00:02:35.892Z,68.14
2024-04-06T00:05:10.565Z,68.25
2024-04-06T00:07:42.660Z,68.44
2024-04-06T00:10:13.701Z,68.49
2024-04-06T00:12:45.090Z,68.38
2024-04-06T00:15:16.699Z,68.48
2024-04-06T00:17:48.234Z,68.58
2024-04-06T00:20:19.407Z,68.81
2024-04-06T00:22:50.636Z,68.72
2024-04-06T00:25:21.975Z,68.69
2024-04-06T00:27:53.380Z,68.78
2024-04-06T00:30:24.734Z,69.00
2024-04-06T00:32:56.348Z,69.31
2024-04-06T00:35:27.685Z,69.05
2024-04-06T00:37:58.856Z,69.32
2024-04-06T00:40:30.084Z,69.55
2024-04-06T00:43:01.804Z,69.36
2024-04-06T00:45:33.009Z,69.58
2024-04-06T00:48:04.464Z,69.64
2024-04-06T00:50:36.506Z,69.89
2024-04-06T00:53:07.828Z,69.82
2024-04-06T00:55:39.589Z,69.92
2024-04-06T00:58:11.528Z,70.27
2024-04-06T01:00:42.643Z,70.15
2024-04-06T01:03:13.855Z,70.35
2024-04-06T01:05:45.521Z,70.29
2024-04-06T01:08:17.914Z,70.56
2024-04-06T01:10:49.138Z,70.67
2024-04-06T01:13:20.278Z,71.00
2024-04-06T01:15:51.703Z,70.86
2024-04-06T01:18:23.002Z,71.20
2024-04-06T01:20:55.419Z,71.25
2024-04-06T01:23:27.365Z,71.27
2024-04-06T01:25:58.502Z,71.45
2024-04-06T01:28:30.340Z,71.64
2024-04-06T01:31:01.682Z,71.65
2024-04-06T01:33:32.866Z,71.65
2024-04-06T01:36:04.327Z,71.73
2024-04-06T01:38:35.572Z,71.76
2024-04-06T01:41:07.263Z,71.68
2024-04-06T01:43:38.456Z,71.95
2024-04-06T01:46:10.330Z,72.03
2024-04-06T01:48:41.899Z,71.98
2024-04-06T01:51:13.204Z,72.12
2024-04-06T01:53:44.362Z,72.11
2024-04-06T01:56:15.627Z,72.18
2024-04-06T01:58:50.372Z,72.06
2024-04-06T02:01:21.648Z,72.34
2024-04-06T02:03:52.811Z,72.67
2024-04-06T02:06:24.439Z,72.53
2024-04-06T02:08:55.832Z,72.62
2024-04-06T02:11:27.297Z,72.85
2024-04-06T02:13:58.426Z,72.94
2024-04-06T02:16:30.058Z,73.18
2024-04-06T02:19:01.239Z,73.13
2024-04-06T02:21:32.651Z,73.12
2024-04-06T02:24:05.487Z,73.47
2024-04-06T02:26:37.340Z,73.39
2024-04-06T02:29:08.272Z,73.47
2024-04-06T02:31:39.340Z,73.66
2024-04-06T02:34:10.940Z,73.54
2024-04-06T02:36:42.295Z,73.55
2024-04-06T02:39:14.056Z,73.88
2024-04-06T02:41:45.046Z,73.93
2024-04-06T02:44:16.136Z,73.65
2024-04-06T02:46:47.235Z,73.72
2024-04-06T02:49:18.180Z,73.74
2024-04-06T02:51:49.177Z,73.80
2024-04-06T02:54:20.281Z,73.90
2024-04-06T02:56:51.221Z,73.84
2024-04-06T02:59:22.840Z,73.99
2024-04-06T03:01:54.224Z,74.07
2024-04-06T03:04:26.621Z,74.05
2024-04-06T03:06:57.708Z,74.17
2024-04-06T03:09:30.336Z,74.11
2024-04-06T03:12:01.429Z,74.34
2024-04-06T03:14:33.104Z,74.27
2024-04-06T03:17:04.867Z,74.38
2024-04-06T03:19:36.234Z,74.69
2024-04-06T03:22:08.649Z,74.64
2024-04-06T03:24:40.038Z,74.93
2024-04-06T03:27:11.320Z,74.89
2024-04-06T03:29:42.558Z,75.15
2024-04-06T03:32:13.652Z,75.21
2024-04-06T03:34:45.408Z,75.21
2024-04-06T03:37:16.855Z,75.34
2024-04-06T03:39:49.739Z,75.52
2024-04-06T03:42:20.668Z,75.47
2024-04-06T03:44:52.305Z,75.35
2024-04-06T03:47:23.617Z,75.45
2024-04-06T03:49:54.908Z,75.60
2024-04-06T03:52:26.065Z,75.52
2024-04-06T03:54:57.627Z,75.66
2024-04-06T03:57:28.802Z,75.82
2024-04-06T04:00:00.783Z,76.11
2024-04-06T04:02:32.825Z,76.09
2024-04-06T04:05:04.279Z,76.25
2024-04-06T04:07:36.689Z,76.28
2024-04-06T04:10:09.649Z,76.31
2024-04-06T04:12:40.751Z,76.36
2024-04-06T04:15:12.639Z,76.33
2024-04-06T04:17:43.929Z,76.73
2024-04-06T04:20:15.265Z,76.63
2024-04-06T04:22:46.373Z,76.72
2024-04-06T04:25:17.874Z,76.80
2024-04-06T04:27:49.109Z,76.98
2024-04-06T04:30:20.743Z,77.12
2024-04-06T04:32:52.461Z,77.21
2024-04-06T04:35:23.676Z,77.57
2024-04-06T04:37:55.423Z,77.54
2024-04-06T04:40:26.733Z,77.78
2024-04-06T04:42:58.002Z,77.78
2024-04-06T04:45:29.748Z,77.95
2024-04-06T04:48:01.118Z,77.94
2024-04-06T04:50:32.723Z,78.13
2024-04-06T04:53:04.094Z,78.12
2024-04-06T04:55:35.341Z,77.96
2024-04-06T04:58:07.192Z,78.26
2024-04-06T05:00:38.875Z,78.17
2024-04-06T05:03:10.319Z,78.15
2024-04-06T05:05:41.756Z,77.97
2024-04-06T05:08:13.788Z,77.89
2024-04-06T05:10:47.532Z,77.85
2024-04-06T05:13:18.756Z,77.97
2024-04-06T05:15:54.186Z,78.14
2024-04-06T05:18:25.786Z,78.15
2024-04-06T05:20:58.282Z,78.21
2024-04-06T05:23:29.680Z,78.49
2024-04-06T05:26:01.729Z,78.52
2024-04-06T05:28:33.450Z,78.40
2024-04-06T05:31:05.240Z,78.37
2024-04-06T05:33:37.156Z,78.41
2024-04-06T05:36:09.892Z,78.53
2024-04-06T05:38:41.289Z,78.52
2024-04-06T05:41:13.090Z,78.37
2024-04-06T05:43:44.414Z,78.27
2024-04-06T05:46:15.994Z,78.51
2024-04-06T05:48:47.290Z,78.55
2024-04-06T05:51:19.287Z,78.63
2024-04-06T05:53:50.693Z,78.54
2024-04-06T05:56:21.991Z,78.64
2024-04-06T05:58:53.330Z,78.66
2024-04-06T06:01:24.854Z,79.07
2024-04-06T06:03:56.144Z,78.88
2024-04-06T06:06:27.372Z,79.05
2024-04-06T06:08:58.492Z,79.03
2024-04-06T06:11:29.714Z,79.07
2024-04-06T06:14:01.341Z,79.27
2024-04-06T06:16:33.053Z,79.14
2024-04-06T06:19:04.218Z,79.22
2024-04-06T06:21:35.642Z,79.22
2024-04-06T06:24:07.955Z,79.08
2024-04-06T06:26:39.171Z,79.09
2024-04-06T06:29:10.241Z,78.56
2024-04-06T06:31:41.731Z,78.48
2024-04-06T06:34:12.879Z,78.15
2024-04-06T06:41:54.674Z,76.70
2024-04-06T06:44:25.854Z,76.15
2024-04-06T06:46:57.039Z,75.68
2024-04-06T06:49:28.402Z,75.12
2024-04-06T06:52:00.044Z,74.87
2024-04-06T06:54:31.167Z,74.35
2024-04-06T06:57:02.329Z,74.20
2024-04-06T07:02:07.765Z,73.76
2024-04-06T07:04:38.865Z,73.71
2024-04-06T07:07:10.586Z,72.82
2024-04-06T07:09:42.282Z,71.63
2024-04-06T07:12:13.324Z,71.70
2024-04-06T07:14:44.620Z,70.87
2024-04-06T07:17:17.306Z,70.57
2024-04-06T07:19:48.531Z,70.27
2024-04-06T07:22:20.076Z,70.07
2024-04-06T07:24:51.130Z,69.72
2024-04-06T07:27:22.462Z,69.62
2024-04-06T07:29:54.178Z,68.65
2024-04-06T07:32:25.282Z,67.70
2024-04-06T07:34:56.462Z,67.78
2024-04-06T07:37:27.591Z,67.54
2024-04-06T07:39:59.202Z,67.00
2024-04-06T07:42:30.579Z,66.94
2024-04-06T07:45:01.965Z,66.39
2024-04-06T07:47:33.120Z,66.04
2024-04-06T07:50:04.470Z,65.45
2024-04-06T07:52:35.732Z,65.08
2024-04-06T07:55:08.090Z,64.69
2024-04-06T07:57:39.758Z,64.64
2024-04-06T08:00:12.730Z,64.19
2024-04-06T08:02:44.929Z,64.13
2024-04-06T08:05:16.066Z,64.41
2024-04-06T08:07:47.173Z,63.70
2024-04-06T08:10:20.398Z,63.26
2024-04-06T08:12:54.770Z,63.25
2024-04-06T08:15:27.507Z,63.08
2024-04-06T08:18:00.180Z,63.30
2024-04-06T08:20:31.486Z,62.63
2024-04-06T08:23:03.350Z,62.82
2024-04-06T08:25:34.179Z,62.34
2024-04-06T08:28:06.483Z,61.74
2024-04-06T08:30:37.539Z,61.65
2024-04-06T08:33:09.286Z,61.34
2024-04-06T08:35:40.393Z,61.11
2024-04-06T08:38:11.625Z,60.73
2024-04-06T08:40:44.126Z,60.42
2024-04-06T08:43:15.357Z,60.02
2024-04-06T08:45:47.130Z,59.89
2024-04-06T08:48:21.152Z,59.67
2024-04-06T08:50:53.632Z,59.24
2024-04-06T08:53:24.996Z,58.70
2024-04-06T08:55:57.952Z,58.48
2024-04-06T08:58:29.639Z,58.27
2024-04-06T09:01:01.770Z,57.97
2024-04-06T09:03:33.448Z,56.94
2024-04-06T09:06:05.379Z,56.80
2024-04-06T09:08:40.439Z,56.73
2024-04-06T09:11:13.431Z,56.59
2024-04-06T09:13:44.561Z,56.66
2024-04-06T09:16:17.554Z,56.48
2024-04-06T09:18:48.606Z,56.54
2024-04-06T09:21:20.737Z,55.98
2024-04-06T09:23:54.875Z,55.40
2024-04-06T09:26:29.012Z,55.15
2024-04-06T09:29:00.983Z,54.93
2024-04-06T09:31:32.491Z,55.01
2024-04-06T09:34:03.781Z,54.73
2024-04-06T09:36:41.305Z,53.73
2024-04-06T09:39:13.861Z,54.25
2024-04-06T09:41:44.922Z,54.44
2024-04-06T09:44:16.200Z,53.98
2024-04-06T09:46:48.163Z,52.87
2024-04-06T09:49:20.606Z,52.40
2024-04-06T09:51:51.583Z,51.89
2024-04-06T09:54:23.116Z,50.89
2024-04-06T09:56:55.268Z,50.70
2024-04-06T09:59:29.285Z,50.55
2024-04-06T10:02:00.609Z,50.47
2024-04-06T10:04:37.467Z,49.61
2024-04-06T10:07:08.892Z,49.33
2024-04-06T10:09:39.891Z,49.17
2024-04-06T10:12:12.596Z,49.34
2024-04-06T10:14:49.397Z,48.69
2024-04-06T10:17:19.351Z,49.11
2024-04-06T10:19:51.624Z,49.40
2024-04-06T10:22:28.102Z,49.63
2024-04-06T10:25:04.503Z,49.90
2024-04-06T10:27:41.115Z,48.71
2024-04-06T10:30:13.040Z,47.35
2024-04-06T10:32:45.284Z,46.79
2024-04-06T10:35:16.755Z,46.62
2024-04-06T10:37:48.721Z,46.32
2024-04-06T10:40:21.015Z,47.09
2024-04-06T10:42:52.558Z,47.97
2024-04-06T10:45:24.329Z,48.25
2024-04-06T10:47:55.478Z,47.73
2024-04-06T10:50:26.629Z,47.74
2024-04-06T10:52:59.260Z,46.38
2024-04-06T10:55:32.938Z,46.20
2024-04-06T10:58:04.169Z,45.82
2024-04-06T11:00:37.813Z,45.64
2024-04-06T11:03:09.911Z,45.18
2024-04-06T11:05:41.524Z,44.61
2024-04-06T11:08:13.056Z,44.62
2024-04-06T11:10:44.360Z,44.76
2024-04-06T11:13:15.676Z,44.52
2024-04-06T11:15:48.529Z,45.13
2024-04-06T11:18:19.661Z,44.25
2024-04-06T11:20:51.152Z,44.07
2024-04-06T11:23:22.980Z,43.06
2024-04-06T11:25:55.347Z,42.94
2024-04-06T11:28:26.754Z,43.28
2024-04-06T11:30:59.510Z,43.28
2024-04-06T11:33:30.800Z,43.62
2024-04-06T11:36:01.948Z,43.50
2024-04-06T11:38:33.189Z,42.87
2024-04-06T11:41:04.610Z,43.11
2024-04-06T11:43:36.083Z,42.76
2024-04-06T11:46:07.559Z,42.00
2024-04-06T11:48:38.807Z,41.80
2024-04-06T11:51:09.940Z,41.22
2024-04-06T11:53:43.840Z,40.83
2024-04-06T11:56:18.520Z,40.49
2024-04-06T11:58:51.412Z,40.27
2024-04-06T12:01:22.600Z,39.90
2024-04-06T12:03:53.871Z,38.89
2024-04-06T12:06:25.366Z,38.23
2024-04-06T12:08:56.777Z,37.74
2024-04-06T12:11:28.775Z,37.69
2024-04-06T12:14:00.167Z,36.89
2024-04-06T12:16:31.311Z,37.09
2024-04-06T12:19:02.843Z,36.50
2024-04-06T12:21:34.025Z,36.91
2024-04-06T12:24:05.650Z,36.95
2024-04-06T12:26:37.142Z,36.24
2024-04-06T12:29:10.318Z,35.60
2024-04-06T12:31:42.135Z,35.79
2024-04-06T12:34:13.321Z,35.79
2024-04-06T12:36:44.699Z,36.27
2024-04-06T12:39:15.914Z,35.91
2024-04-06T12:41:47.365Z,36.34
2024-04-06T12:44:18.643Z,36.46
2024-04-06T12:46:49.809Z,35.45
2024-04-06T12:49:21.253Z,35.40
2024-04-06T12:51:52.780Z,34.69
2024-04-06T12:54:23.902Z,34.53
2024-04-06T12:57:09.196Z,34.35
2024-04-06T12:59:40.895Z,33.43
2024-04-06T13:02:12.652Z,32.92
2024-04-06T13:04:43.736Z,32.16
2024-04-06T13:07:14.897Z,33.09
2024-04-06T13:09:54.928Z,33.50
2024-04-06T13:12:31.402Z,32.96
2024-04-06T13:15:05.936Z,31.99
2024-04-06T13:17:37.816Z,31.56
2024-04-06T13:20:20.192Z,30.86
2024-04-06T13:22:51.220Z,31.18
2024-04-06T13:25:22.468Z,30.74
2024-04-06T13:27:54.103Z,30.48
2024-04-06T13:30:26.153Z,31.21
2024-04-06T13:32:58.011Z,30.88
2024-04-06T13:35:28.935Z,30.33
2024-04-06T13:37:59.958Z,30.30
2024-04-06T13:40:30.807Z,31.09
2024-04-06T13:43:01.737Z,30.66
2024-04-06T13:45:32.815Z,31.14
2024-04-06T13:48:14.401Z,30.97
2024-04-06T13:50:47.100Z,31.42
2024-04-06T13:53:18.548Z,31.57
2024-04-06T13:55:49.619Z,31.12
2024-04-06T13:58:21.225Z,31.27
2024-04-06T14:00:52.174Z,31.38
2024-04-06T14:03:23.221Z,30.90
2024-04-06T14:05:54.209Z,30.97
2024-04-06T14:08:26.939Z,30.52
2024-04-06T14:10:57.699Z,30.14
2024-04-06T14:13:32.095Z,30.33
2024-04-06T14:16:05.390Z,29.89
2024-04-06T14:18:37.768Z,30.56
2024-04-06T14:21:08.674Z,30.87
2024-04-06T14:23:40.580Z,29.97
2024-04-06T14:26:12.730Z,30.13
2024-04-06T14:28:43.867Z,29.92
2024-04-06T14:31:17.934Z,29.07
2024-04-06T14:33:50.170Z,28.98
2024-04-06T14:36:21.214Z,27.29
2024-04-06T14:38:52.249Z,27.43
2024-04-06T14:41:23.536Z,28.08
2024-04-06T14:43:54.613Z,27.85
2024-04-06T14:46:26.123Z,27.53
2024-04-06T14:48:57.114Z,27.24
2024-04-06T14:51:28.307Z,27.09
2024-04-06T14:53:59.499Z,27.42
2024-04-06T14:56:30.365Z,26.83
2024-04-06T14:59:01.260Z,26.21
2024-04-06T15:01:32.245Z,26.75
2024-04-06T15:04:03.727Z,26.50
2024-04-06T15:06:34.696Z,26.34
2024-04-06T15:09:08.475Z,26.03
2024-04-06T15:11:39.483Z,26.49
2024-04-06T15:14:10.833Z,26.29
2024-04-06T15:16:41.833Z,26.71
2024-04-06T15:19:13.180Z,26.58
2024-04-06T15:21:44.069Z,27.46
2024-04-06T15:24:16.049Z,27.86
2024-04-06T15:26:47.490Z,27.53
2024-04-06T15:29:18.457Z,27.00
2024-04-06T15:31:49.424Z,27.00
2024-04-06T15:34:20.597Z,27.22
2024-04-06T15:36:51.574Z,27.05
2024-04-06T15:39:27.784Z,26.73
2024-04-06T15:41:59.400Z,27.21
2024-04-06T15:44:30.369Z,27.47
2024-04-06T15:47:08.348Z,28.27
2024-04-06T15:49:39.292Z,28.47
2024-04-06T15:52:11.227Z,28.69
2024-04-06T15:54:42.084Z,28.93
2024-04-06T15:57:13.040Z,28.93
2024-04-06T15:59:43.941Z,29.19
2024-04-06T16:02:15.020Z,29.63
2024-04-06T16:04:46.451Z,29.74
2024-04-06T16:07:17.436Z,30.20
2024-04-06T16:09:48.508Z,30.21
2024-04-06T16:12:19.584Z,29.62
2024-04-06T16:14:50.634Z,30.14
2024-04-06T16:17:21.746Z,30.51
2024-04-06T16:19:52.932Z,31.28
2024-04-06T16:22:24.378Z,31.80
2024-04-06T16:24:55.614Z,32.19
2024-04-06T16:27:26.680Z,32.00
2024-04-06T16:29:57.708Z,32.73
2024-04-06T16:32:28.681Z,33.02
2024-04-06T16:35:00.246Z,33.36
2024-04-06T16:37:32.058Z,33.74
2024-04-06T16:40:05.624Z,34.41
2024-04-06T16:42:36.648Z,34.95
2024-04-06T16:45:09.468Z,34.89
2024-04-06T16:47:40.649Z,35.53
2024-04-06T16:50:11.915Z,36.43
2024-04-06T16:52:42.981Z,37.01
2024-04-06T16:55:14.400Z,37.46
2024-04-06T16:57:45.983Z,38.07
2024-04-06T17:00:18.798Z,38.66
2024-04-06T17:02:49.878Z,39.42
2024-04-06T17:05:22.376Z,39.90
2024-04-06T17:07:53.527Z,39.87
2024-04-06T17:10:25.011Z,38.38
2024-04-06T17:12:57.172Z,37.87
2024-04-06T17:15:28.763Z,38.22
2024-04-06T17:17:59.907Z,37.80
2024-04-06T17:20:31.433Z,37.13
2024-04-06T17:23:02.756Z,36.92
2024-04-06T17:25:33.790Z,37.04
2024-04-06T17:28:06.041Z,36.96
2024-04-06T17:30:38.016Z,36.64
2024-04-06T17:33:09.212Z,36.80
2024-04-06T17:35:40.052Z,36.76
2024-04-06T17:38:11.057Z,37.17
2024-04-06T17:40:42.431Z,37.12
2024-04-06T17:43:14.064Z,37.13
2024-04-06T17:45:44.936Z,37.26
2024-04-06T17:48:16.387Z,37.80
2024-04-06T17:53:40.546Z,38.58
2024-04-06T17:56:11.574Z,38.97
2024-04-06T17:58:42.539Z,37.75
2024-04-06T18:01:13.611Z,38.68
2024-04-06T18:03:44.653Z,39.12
2024-04-06T18:06:15.761Z,39.41
2024-04-06T18:08:47.654Z,39.26
2024-04-06T18:11:19.166Z,39.94
2024-04-06T18:13:50.566Z,40.79
2024-04-06T18:16:22.862Z,41.64
2024-04-06T18:18:53.983Z,42.50
2024-04-06T18:21:25.223Z,43.05
2024-04-06T18:23:57.238Z,43.80
2024-04-06T18:26:28.507Z,44.40
2024-04-06T18:28:59.871Z,44.97
2024-04-06T18:31:30.888Z,45.40
2024-04-06T18:34:01.992Z,45.57
2024-04-06T18:36:33.348Z,46.01
2024-04-06T18:39:04.857Z,46.49
2024-04-06T18:41:36.418Z,47.00
2024-04-06T18:44:07.931Z,47.35
2024-04-06T18:46:39.319Z,47.87
2024-04-06T18:49:10.757Z,48.54
2024-04-06T18:51:42.348Z,49.16
2024-04-06T18:54:23.482Z,49.68
2024-04-06T18:56:59.144Z,50.15
2024-04-06T18:59:30.384Z,50.58
2024-04-06T19:02:01.458Z,50.91
2024-04-06T19:04:32.523Z,50.98
2024-04-06T19:07:04.156Z,51.18
2024-04-06T19:09:35.684Z,51.39
2024-04-06T19:12:08.510Z,51.47
2024-04-06T19:14:40.181Z,51.96
2024-04-06T19:17:11.454Z,52.25
2024-04-06T19:19:43.476Z,52.51
2024-04-06T19:22:14.977Z,52.55
2024-04-06T19:24:46.578Z,52.61
2024-04-06T19:27:17.476Z,53.14
2024-04-06T19:29:49.107Z,53.36
2024-04-06T19:32:20.370Z,53.92
2024-04-06T19:34:52.301Z,54.44
2024-04-06T19:37:24.571Z,54.60
2024-04-06T19:39:56.367Z,55.02
2024-04-06T19:42:27.786Z,55.48
2024-04-06T19:44:58.714Z,55.63
2024-04-06T19:47:29.600Z,55.88
2024-04-06T19:50:00.923Z,56.08
2024-04-06T19:52:32.526Z,56.21
2024-04-06T19:55:07.357Z,56.21
2024-04-06T19:57:39.814Z,56.37
2024-04-06T20:00:12.388Z,56.66
2024-04-06T20:02:44.364Z,57.16
2024-04-06T20:05:16.755Z,57.35
2024-04-06T20:07:47.750Z,57.42
2024-04-06T20:10:19.488Z,57.77
2024-04-06T20:12:50.608Z,57.83
2024-04-06T20:15:21.677Z,58.16
2024-04-06T20:17:53.253Z,58.06
2024-04-06T20:20:25.680Z,58.18
2024-04-06T20:23:11.185Z,58.29
2024-04-06T20:25:56.638Z,58.33
2024-04-06T20:28:27.894Z,58.56
2024-04-06T20:31:00.636Z,58.78
2024-04-06T20:33:33.080Z,58.91
2024-04-06T20:36:05.525Z,59.09
2024-04-06T20:38:37.497Z,59.15
2024-04-06T20:41:09.373Z,59.27
2024-04-06T20:43:40.360Z,59.39
2024-04-06T20:46:11.934Z,59.50
2024-04-06T20:48:43.097Z,59.54
2024-04-06T20:51:14.760Z,59.83
2024-04-06T20:53:46.051Z,59.71
2024-04-06T20:56:19.289Z,59.94
2024-04-06T20:58:50.118Z,60.13
2024-04-06T21:01:21.449Z,60.11
2024-04-06T21:03:52.963Z,60.16
2024-04-06T21:06:24.291Z,60.33
2024-04-06T21:08:55.762Z,60.21
2024-04-06T21:11:28.595Z,60.30
2024-04-06T21:13:59.496Z,60.56
2024-04-06T21:16:31.329Z,60.89
2024-04-06T21:19:02.565Z,60.81
2024-04-06T21:21:34.049Z,60.69
2024-04-06T21:24:05.213Z,60.83
2024-04-06T21:26:39.566Z,60.91
2024-04-06T21:29:10.644Z,60.73
2024-04-06T21:31:42.049Z,60.79
2024-04-06T21:34:13.610Z,60.89
2024-04-06T21:36:44.803Z,61.04
2024-04-06T21:39:16.650Z,61.40
2024-04-06T21:41:49.654Z,61.28
2024-04-06T21:44:20.713Z,61.52
2024-04-06T21:46:51.597Z,61.98
2024-04-06T21:49:22.389Z,61.76
2024-04-06T21:51:52.828Z,61.70
2024-04-06T21:54:25.239Z,62.06
2024-04-06T21:56:56.105Z,62.01
2024-04-06T21:59:27.135Z,62.01
2024-04-06T22:01:59.341Z,62.14
2024-04-06T22:04:31.657Z,62.49
2024-04-06T22:07:03.139Z,62.61
2024-04-06T22:09:34.590Z,62.87
2024-04-06T22:12:08.183Z,62.82
2024-04-06T22:14:39.166Z,63.14
2024-04-06T22:17:10.552Z,63.21
2024-04-06T22:19:41.972Z,63.15
2024-04-06T22:22:13.602Z,63.21
2024-04-06T22:24:45.766Z,63.31
2024-04-06T22:27:16.814Z,63.44
2024-04-06T22:29:49.180Z,63.38
2024-04-06T22:32:20.717Z,63.37
2024-04-06T22:34:52.000Z,63.53
2024-04-06T22:37:23.235Z,63.49
2024-04-06T22:39:54.116Z,63.64
2024-04-06T22:42:24.042Z,63.85
2024-04-06T22:44:54.943Z,63.79
2024-04-06T22:47:26.183Z,63.95
2024-04-06T22:49:57.508Z,64.30
2024-04-06T22:52:28.449Z,64.23
2024-04-06T22:54:59.874Z,64.45
2024-04-06T22:57:30.804Z,64.49
2024-04-06T23:00:02.237Z,64.73
2024-04-06T23:02:35.252Z,64.91
2024-04-06T23:05:07.371Z,64.97
2024-04-06T23:07:39.080Z,65.06
2024-04-06T23:10:10.844Z,65.10
2024-04-06T23:12:41.947Z,65.13
2024-04-06T23:15:13.095Z,65.20
2024-04-06T23:17:43.946Z,65.43
2024-04-06T23:20:14.996Z,65.41
2024-04-06T23:22:46.176Z,65.45
2024-04-06T23:25:17.447Z,65.58
2024-04-06T23:27:48.431Z,65.33
2024-04-06T23:30:19.419Z,65.47
2024-04-06T23:32:50.321Z,65.48
2024-04-06T23:35:21.345Z,65.52
2024-04-06T23:37:52.231Z,65.60
2024-04-06T23:40:24.496Z,65.55
2024-04-06T23:42:55.534Z,65.52
2024-04-06T23:45:26.936Z,65.60
2024-04-06T23:47:58.178Z,65.58
2024-04-06T23:50:29.459Z,65.85
2024-04-06T23:53:00.471Z,65.82
2024-04-06T23:55:31.548Z,65.96
2024-04-06T23:58:02.755Z,65.92
